Terminal Aerodrome Forecast
Issued by NWS

Current Version | Previous Version | Graphics & Text | Print | Product List | Glossary On
Versions: 1 2 3 4 5 6 7 8 9 10 11 12 13 14 15 16 17 18 19 20
000
FTUS41 KILN 180200 AAA
TAFLUK
TAF AMD
KLUK 180222Z 1802/1824 27012G22KT P6SM SCT050 OVC080
     FM180400 28012KT P6SM OVC050
     FM181000 29012KT P6SM BKN025
      TEMPO 1810/1814 BKN018
     FM181500 30012G22KT P6SM OVC025
     FM181900 31012G24KT P6SM VCSH OVC025
     FM182300 32010G18KT P6SM BKN025=

USA.gov is the U.S. government's official web portal to all federal, state and local government web resources and services.